Time;durP1;ratioP1;P1;durP2;ratioP2;P2;SDS_P1;SDS_P2;PMS_P1;PMS_P2;Temp;Humidity;BMP_temperature;BMP_pressure;BME280_temperature;BME280_humidity;BME280_pressure;Samples;Min_cycle;Max_cycle;Signal;HPM_P1;HPM_P2
2022/07/23 00:03:03;;;;;;;2.97;0.90;;;;;;;;;;10037275;28;20123;-68
2022/07/23 00:07:59;;;;;;;4.68;1.17;;;;;;;;;;10074457;28;20075;-69
2022/07/23 00:12:56;;;;;;;4.40;0.93;;;;;;;;;;10075863;28;20081;-68
2022/07/23 00:17:52;;;;;;;3.85;1.00;;;;;;;;;;10050466;28;20051;-68
2022/07/23 00:22:49;;;;;;;9.27;1.73;;;;;;;;;;10036992;28;20051;-68
2022/07/23 00:27:46;;;;;;;2.55;0.98;;;;;;;;;;10073591;28;20059;-68
2022/07/23 00:32:50;;;;;;;5.43;0.88;;;;;;;;;;10067272;28;20104;-68
2022/07/23 00:37:52;;;;;;;3.28;1.02;;;;;;;;;;10073674;28;20519;-68
2022/07/23 00:42:48;;;;;;;3.30;0.70;;;;;;;;;;10056237;28;20047;-68
2022/07/23 00:47:45;;;;;;;3.60;0.80;;;;;;;;;;10035800;28;20094;-68
2022/07/23 00:52:41;;;;;;;3.40;1.00;;;;;;;;;;10042182;28;20044;-68
2022/07/23 00:57:38;;;;;;;3.10;0.80;;;;;;;;;;10084797;28;20135;-68
2022/07/23 01:02:34;;;;;;;3.17;0.73;;;;;;;;;;10052529;28;20047;-68
2022/07/23 01:07:30;;;;;;;4.00;0.82;;;;;;;;;;10075624;28;20553;-68
2022/07/23 01:12:27;;;;;;;6.72;1.10;;;;;;;;;;10047196;28;20106;-68
2022/07/23 01:17:23;;;;;;;3.30;1.05;;;;;;;;;;10057278;28;20075;-68
2022/07/23 01:22:20;;;;;;;1.98;0.77;;;;;;;;;;10047866;28;20072;-68
2022/07/23 01:27:17;;;;;;;11.70;1.85;;;;;;;;;;10055104;28;20043;-68
2022/07/23 01:32:15;;;;;;;3.53;0.82;;;;;;;;;;10047512;28;20418;-68
2022/07/23 01:37:11;;;;;;;4.43;0.85;;;;;;;;;;10068240;28;20127;-68
2022/07/23 01:42:07;;;;;;;6.38;1.70;;;;;;;;;;10047035;28;20044;-69
2022/07/23 01:47:04;;;;;;;2.88;0.98;;;;;;;;;;10049832;28;20048;-68
2022/07/23 01:52:00;;;;;;;4.07;1.08;;;;;;;;;;10062083;28;20130;-68
2022/07/23 01:56:57;;;;;;;3.15;0.90;;;;;;;;;;10078283;28;20044;-68
2022/07/23 02:01:53;;;;;;;2.95;0.70;;;;;;;;;;10048198;28;20552;-68
2022/07/23 02:06:50;;;;;;;3.85;0.85;;;;;;;;;;10069370;28;20733;-68
2022/07/23 02:11:46;;;;;;;2.15;0.85;;;;;;;;;;10079856;28;20425;-68
2022/07/23 02:16:42;;;;;;;3.08;0.60;;;;;;;;;;10070524;28;20079;-68
2022/07/23 02:21:39;;;;;;;2.63;0.80;;;;;;;;;;10040385;28;20039;-68
2022/07/23 02:26:35;;;;;;;3.55;1.30;;;;;;;;;;10052477;28;20103;-68
2022/07/23 02:31:32;;;;;;;2.65;0.90;;;;;;;;;;10040376;28;20574;-68
2022/07/23 02:36:28;;;;;;;2.88;1.00;;;;;;;;;;10067185;28;20043;-68
2022/07/23 02:41:25;;;;;;;5.70;1.13;;;;;;;;;;10079213;28;20066;-68
2022/07/23 02:46:21;;;;;;;2.67;0.70;;;;;;;;;;10054607;28;20043;-68
2022/07/23 02:51:17;;;;;;;8.57;1.30;;;;;;;;;;10039888;28;20065;-68
2022/07/23 02:56:14;;;;;;;3.10;0.82;;;;;;;;;;10065085;28;20127;-68
2022/07/23 03:01:10;;;;;;;8.57;1.48;;;;;;;;;;10078531;28;20472;-68
2022/07/23 03:06:06;;;;;;;2.85;0.70;;;;;;;;;;10066752;28;20130;-68
2022/07/23 03:11:03;;;;;;;2.28;0.60;;;;;;;;;;10073926;28;20055;-68
2022/07/23 03:15:59;;;;;;;3.50;0.80;;;;;;;;;;10061685;28;20107;-68
2022/07/23 03:20:55;;;;;;;3.05;0.95;;;;;;;;;;10071198;28;20047;-68
2022/07/23 03:25:52;;;;;;;4.68;1.35;;;;;;;;;;10060986;28;20078;-68
2022/07/23 03:30:50;;;;;;;2.80;1.13;;;;;;;;;;10057925;28;20056;-68
2022/07/23 03:35:46;;;;;;;2.78;1.00;;;;;;;;;;10059261;28;20073;-68
2022/07/23 03:40:43;;;;;;;6.50;1.25;;;;;;;;;;10076131;28;20114;-69
2022/07/23 03:45:40;;;;;;;3.38;0.68;;;;;;;;;;10068898;28;20166;-68
2022/07/23 03:50:37;;;;;;;4.65;1.40;;;;;;;;;;10037611;28;20078;-68
2022/07/23 03:55:33;;;;;;;1.15;0.65;;;;;;;;;;10057604;28;20063;-68
2022/07/23 04:00:29;;;;;;;6.15;1.08;;;;;;;;;;10051032;28;20681;-68
2022/07/23 04:05:26;;;;;;;3.72;1.05;;;;;;;;;;10056564;28;20165;-68
2022/07/23 04:10:22;;;;;;;2.97;0.93;;;;;;;;;;10071826;28;20101;-68
2022/07/23 04:15:19;;;;;;;6.55;1.42;;;;;;;;;;10054498;28;20126;-68
2022/07/23 04:20:16;;;;;;;1.67;0.77;;;;;;;;;;10039454;28;20486;-68
2022/07/23 04:25:13;;;;;;;4.97;1.25;;;;;;;;;;10052939;28;20074;-68
2022/07/23 04:30:09;;;;;;;3.10;0.90;;;;;;;;;;10066729;28;20489;-68
2022/07/23 04:35:06;;;;;;;2.97;1.33;;;;;;;;;;10052201;28;20051;-68
2022/07/23 04:40:02;;;;;;;6.20;1.08;;;;;;;;;;10052560;28;20058;-68
2022/07/23 04:44:59;;;;;;;3.65;0.80;;;;;;;;;;10052343;29;20043;-68
2022/07/23 04:49:55;;;;;;;5.00;1.10;;;;;;;;;;10052125;28;20048;-68
2022/07/23 04:54:52;;;;;;;6.03;1.45;;;;;;;;;;10049728;28;20054;-68
2022/07/23 04:59:48;;;;;;;5.50;1.05;;;;;;;;;;10043762;28;20060;-68
2022/07/23 05:04:44;;;;;;;3.20;1.10;;;;;;;;;;10048787;28;20667;-68
2022/07/23 05:09:41;;;;;;;5.10;1.42;;;;;;;;;;10038525;28;20047;-68
2022/07/23 05:14:37;;;;;;;3.10;1.27;;;;;;;;;;10036257;28;20510;-68
2022/07/23 05:19:34;;;;;;;6.03;1.05;;;;;;;;;;10034761;28;20055;-68
2022/07/23 05:24:30;;;;;;;6.40;1.23;;;;;;;;;;10047467;28;20063;-68
2022/07/23 05:29:26;;;;;;;2.50;0.82;;;;;;;;;;10072352;28;20113;-69
2022/07/23 05:34:23;;;;;;;5.68;0.75;;;;;;;;;;10073349;28;20078;-68
2022/07/23 05:39:19;;;;;;;3.80;1.00;;;;;;;;;;10076979;28;20063;-68
2022/07/23 05:44:15;;;;;;;4.07;1.20;;;;;;;;;;10066854;28;20048;-68
2022/07/23 05:49:12;;;;;;;3.33;1.13;;;;;;;;;;10077418;28;20122;-68
2022/07/23 05:54:08;;;;;;;2.25;0.75;;;;;;;;;;10050488;28;20070;-68
2022/07/23 05:59:05;;;;;;;1.98;0.60;;;;;;;;;;10069249;28;20103;-68
2022/07/23 06:04:02;;;;;;;3.33;0.75;;;;;;;;;;10049424;28;20653;-68
2022/07/23 06:08:58;;;;;;;4.10;1.35;;;;;;;;;;10057167;28;20096;-68
2022/07/23 06:13:55;;;;;;;2.25;0.63;;;;;;;;;;10047975;28;20078;-68
2022/07/23 06:18:51;;;;;;;3.08;1.02;;;;;;;;;;10052308;28;20075;-68
2022/07/23 06:23:48;;;;;;;2.35;0.60;;;;;;;;;;10043025;28;20558;-68
2022/07/23 06:28:44;;;;;;;4.78;0.73;;;;;;;;;;10039899;28;20080;-68
2022/07/23 06:33:40;;;;;;;3.33;0.98;;;;;;;;;;10046095;28;20114;-68
2022/07/23 06:38:37;;;;;;;4.85;1.15;;;;;;;;;;10078296;28;20122;-68
2022/07/23 06:43:33;;;;;;;4.80;1.10;;;;;;;;;;10067685;28;20569;-68
2022/07/23 06:48:29;;;;;;;2.83;0.90;;;;;;;;;;10077970;28;20489;-68
2022/07/23 06:53:26;;;;;;;3.33;1.27;;;;;;;;;;10056048;28;20047;-68
2022/07/23 06:58:22;;;;;;;1.95;0.65;;;;;;;;;;10077762;28;20151;-68
2022/07/23 07:03:18;;;;;;;2.78;1.00;;;;;;;;;;10043494;28;20507;-68
2022/07/23 07:08:15;;;;;;;2.22;0.68;;;;;;;;;;10064533;28;20071;-68
2022/07/23 07:13:12;;;;;;;2.55;0.70;;;;;;;;;;10040418;28;20047;-68
2022/07/23 07:18:08;;;;;;;2.67;0.70;;;;;;;;;;10046853;28;20140;-68
2022/07/23 07:23:05;;;;;;;1.70;0.70;;;;;;;;;;10039449;28;20059;-68
2022/07/23 07:28:01;;;;;;;8.43;0.95;;;;;;;;;;10076758;28;20086;-68
2022/07/23 07:32:58;;;;;;;2.75;0.63;;;;;;;;;;10067183;28;20055;-69
2022/07/23 07:37:54;;;;;;;2.63;0.85;;;;;;;;;;10075832;28;20043;-68
2022/07/23 07:42:51;;;;;;;2.25;0.95;;;;;;;;;;10056332;28;20118;-68
2022/07/23 07:47:48;;;;;;;3.92;0.90;;;;;;;;;;10074779;28;20138;-68
2022/07/23 07:52:44;;;;;;;8.95;1.33;;;;;;;;;;10076110;28;20090;-68
2022/07/23 07:57:40;;;;;;;1.63;0.65;;;;;;;;;;10075943;28;20055;-68
2022/07/23 08:02:45;;;;;;;3.10;0.80;;;;;;;;;;10075130;28;20137;-69
2022/07/23 08:07:41;;;;;;;2.78;0.60;;;;;;;;;;10070929;28;20044;-68
2022/07/23 08:12:39;;;;;;;1.92;0.88;;;;;;;;;;10036433;28;20059;-68
2022/07/23 08:17:35;;;;;;;2.70;0.82;;;;;;;;;;10065592;28;20071;-68
2022/07/23 08:22:44;;;;;;;4.25;1.08;;;;;;;;;;10036435;28;20078;-68
2022/07/23 08:27:41;;;;;;;2.55;0.60;;;;;;;;;;10063093;28;20570;-67
2022/07/23 08:32:56;;;;;;;3.50;0.77;;;;;;;;;;10036224;28;20079;-68
2022/07/23 08:37:52;;;;;;;4.88;0.90;;;;;;;;;;10046775;28;20129;-68
2022/07/23 08:42:49;;;;;;;1.33;0.60;;;;;;;;;;10036093;28;20065;-68
2022/07/23 08:47:49;;;;;;;2.20;0.60;;;;;;;;;;10037275;28;20055;-68
2022/07/23 08:52:48;;;;;;;;;;;;;;;;;;10037022;28;20040;-68
2022/07/23 08:57:47;;;;;;;2.05;0.55;;;;;;;;;;10072591;28;20152;-68
2022/07/23 09:02:45;;;;;;;1.55;0.40;;;;;;;;;;10064070;28;20139;-68
2022/07/23 09:08:00;;;;;;;2.80;0.80;;;;;;;;;;10072088;28;20187;-68
2022/07/23 09:12:56;;;;;;;2.10;0.88;;;;;;;;;;10047962;28;20051;-68
2022/07/23 09:17:53;;;;;;;1.95;0.70;;;;;;;;;;10079757;28;20097;-68
2022/07/23 09:22:50;;;;;;;1.25;0.80;;;;;;;;;;10043548;28;20053;-68
2022/07/23 09:27:46;;;;;;;1.88;0.73;;;;;;;;;;10079399;28;20051;-68
2022/07/23 09:33:07;;;;;;;1.15;0.80;;;;;;;;;;10043191;28;20079;-68
2022/07/23 09:38:04;;;;;;;2.15;0.75;;;;;;;;;;10042529;28;20138;-68
2022/07/23 09:43:00;;;;;;;2.83;1.05;;;;;;;;;;10042460;28;20044;-68
2022/07/23 09:48:13;;;;;;;4.03;1.20;;;;;;;;;;10060996;28;20078;-68
2022/07/23 09:53:10;;;;;;;2.47;1.10;;;;;;;;;;10043238;28;20093;-68
2022/07/23 09:58:11;;;;;;;2.70;0.73;;;;;;;;;;10046390;28;20043;-68
2022/07/23 10:03:08;;;;;;;2.92;1.30;;;;;;;;;;10056885;28;20048;-68
2022/07/23 10:08:06;;;;;;;2.47;0.85;;;;;;;;;;10043015;28;20136;-68
2022/07/23 10:18:17;;;;;;;1.85;1.02;;;;;;;;;;10079809;28;20463;-67
2022/07/23 10:23:14;;;;;;;1.88;1.02;;;;;;;;;;10069980;28;20086;-67
2022/07/23 10:28:33;;;;;;;1.35;0.77;;;;;;;;;;10078561;28;20062;-68
2022/07/23 10:33:37;;;;;;;1.88;0.90;;;;;;;;;;10048969;28;20103;-68
2022/07/23 10:38:34;;;;;;;1.85;1.00;;;;;;;;;;10076651;28;20480;-68
2022/07/23 10:43:30;;;;;;;3.63;1.45;;;;;;;;;;10043804;28;20059;-68
2022/07/23 10:48:27;;;;;;;1.88;1.10;;;;;;;;;;10060981;28;20719;-68
2022/07/23 10:53:23;;;;;;;2.20;1.20;;;;;;;;;;10042820;28;20043;-68
2022/07/23 10:58:43;;;;;;;2.05;1.20;;;;;;;;;;10047970;28;20624;-68
2022/07/23 11:03:39;;;;;;;2.97;1.42;;;;;;;;;;10040791;28;20474;-68
2022/07/23 11:08:35;;;;;;;4.10;1.55;;;;;;;;;;10038479;28;20082;-68
2022/07/23 11:13:42;;;;;;;2.55;1.40;;;;;;;;;;10043177;28;20424;-68
2022/07/23 11:18:44;;;;;;;2.35;1.40;;;;;;;;;;10076957;28;20047;-68
2022/07/23 11:23:40;;;;;;;;;;;;;;;;;;10045959;28;20043;-68
2022/07/23 11:28:41;;;;;;;1.98;1.10;;;;;;;;;;10076460;28;20439;-68
2022/07/23 11:33:38;;;;;;;1.20;0.90;;;;;;;;;;10077177;28;20078;-68
2022/07/23 11:38:36;;;;;;;2.58;1.00;;;;;;;;;;10074319;28;20517;-67
2022/07/23 11:43:36;;;;;;;1.77;0.93;;;;;;;;;;10041934;28;20050;-67
2022/07/23 11:48:32;;;;;;;2.15;1.10;;;;;;;;;;10071106;28;20446;-67
2022/07/23 11:53:36;;;;;;;2.55;1.25;;;;;;;;;;10041971;28;20425;-68
2022/07/23 11:58:32;;;;;;;2.88;1.30;;;;;;;;;;10068898;28;20687;-68
2022/07/23 12:03:29;;;;;;;2.50;1.40;;;;;;;;;;10040807;28;20506;-68
2022/07/23 12:08:25;;;;;;;3.88;1.27;;;;;;;;;;10053205;28;20457;-68
2022/07/23 12:13:22;;;;;;;4.22;1.70;;;;;;;;;;10038331;28;20098;-67
2022/07/23 12:18:20;;;;;;;3.67;1.45;;;;;;;;;;10036296;28;20130;-67
2022/07/23 12:23:18;;;;;;;3.85;1.58;;;;;;;;;;10036885;28;20118;-68
2022/07/23 12:28:17;;;;;;;3.45;1.40;;;;;;;;;;10035817;28;20598;-68
2022/07/23 12:33:21;;;;;;;3.28;1.33;;;;;;;;;;10037676;28;20090;-68
2022/07/23 12:38:19;;;;;;;3.30;1.30;;;;;;;;;;10074515;28;20485;-68
2022/07/23 12:43:22;;;;;;;2.72;1.38;;;;;;;;;;10038191;28;20555;-68
2022/07/23 12:48:18;;;;;;;;;;;;;;;;;;10073803;28;20090;-68
2022/07/23 12:53:15;;;;;;;3.05;1.60;;;;;;;;;;10074848;28;19926;-68
2022/07/23 12:58:20;;;;;;;5.20;1.60;;;;;;;;;;10055435;28;20055;-68
2022/07/23 13:03:28;;;;;;;4.97;3.95;;;;;;;;;;10037350;28;20079;-69
2022/07/23 13:08:26;;;;;;;3.63;1.70;;;;;;;;;;10040863;28;20048;-68
2022/07/23 13:13:24;;;;;;;5.60;2.90;;;;;;;;;;10037329;28;20575;-68
2022/07/23 13:18:25;;;;;;;;;;;;;;;;;;10035500;28;20127;-68
2022/07/23 13:23:22;;;;;;;3.00;1.27;;;;;;;;;;10038627;28;19923;-68
2022/07/23 13:28:22;;;;;;;4.18;1.50;;;;;;;;;;10074144;28;20058;-68
2022/07/23 13:33:19;;;;;;;5.15;1.73;;;;;;;;;;10051929;28;20130;-67
2022/07/23 13:38:16;;;;;;;3.60;1.55;;;;;;;;;;10070987;28;20126;-67
2022/07/23 13:43:14;;;;;;;3.05;2.22;;;;;;;;;;10073718;28;20055;-67
2022/07/23 13:48:11;;;;;;;3.22;1.50;;;;;;;;;;10067986;28;20056;-68
2022/07/23 13:53:12;;;;;;;2.95;1.40;;;;;;;;;;10035614;28;20498;-68
2022/07/23 13:58:08;;;;;;;15.10;11.00;;;;;;;;;;10065939;28;20047;-68
2022/07/23 14:03:05;;;;;;;39.85;27.02;;;;;;;;;;10042262;28;20090;-68
2022/07/23 14:08:02;;;;;;;17.40;12.13;;;;;;;;;;10055810;28;20421;-68
2022/07/23 14:12:59;;;;;;;6.43;2.95;;;;;;;;;;10040900;28;20055;-68
2022/07/23 14:17:56;;;;;;;8.50;5.00;;;;;;;;;;10042404;28;20516;-67
2022/07/23 14:22:54;;;;;;;11.48;6.57;;;;;;;;;;10042009;28;20770;-68
2022/07/23 14:27:50;;;;;;;4.68;1.88;;;;;;;;;;10078106;28;20134;-67
2022/07/23 14:32:47;;;;;;;2.50;1.23;;;;;;;;;;10066348;28;20077;-69
2022/07/23 14:37:43;;;;;;;3.60;1.40;;;;;;;;;;10077924;28;20062;-67
2022/07/23 14:42:40;;;;;;;2.58;1.20;;;;;;;;;;10050709;28;20047;-68
2022/07/23 14:47:36;;;;;;;3.92;2.03;;;;;;;;;;10076233;28;20047;-68
2022/07/23 14:52:32;;;;;;;15.35;8.15;;;;;;;;;;10044580;28;20080;-67
2022/07/23 14:57:29;;;;;;;5.72;3.10;;;;;;;;;;10070152;28;20395;-68
2022/07/23 15:02:26;;;;;;;4.32;1.63;;;;;;;;;;10039699;28;20058;-68
2022/07/23 15:07:22;;;;;;;5.22;2.30;;;;;;;;;;10056134;28;20084;-68
2022/07/23 15:12:22;;;;;;;4.15;1.58;;;;;;;;;;10038673;28;20099;-68
2022/07/23 15:17:21;;;;;;;2.90;1.60;;;;;;;;;;10050588;28;20130;-68
2022/07/23 15:22:17;;;;;;;5.85;1.90;;;;;;;;;;10038921;28;20048;-68
2022/07/23 15:27:13;;;;;;;2.63;1.60;;;;;;;;;;10072178;28;20043;-67
2022/07/23 15:32:11;;;;;;;5.43;1.85;;;;;;;;;;10062950;28;20107;-67
2022/07/23 15:37:08;;;;;;;7.05;3.55;;;;;;;;;;10070426;28;20078;-68
2022/07/23 15:42:09;;;;;;;7.67;4.53;;;;;;;;;;10047696;28;20399;-68
2022/07/23 15:47:14;;;;;;;11.90;6.30;;;;;;;;;;10068362;28;20047;-67
2022/07/23 15:52:11;;;;;;;9.35;6.22;;;;;;;;;;10038008;28;20047;-67
2022/07/23 15:57:07;;;;;;;4.65;2.22;;;;;;;;;;10066944;28;20051;-68
2022/07/23 16:02:04;;;;;;;2.67;1.65;;;;;;;;;;10037365;28;20048;-67
2022/07/23 16:07:01;;;;;;;4.10;2.20;;;;;;;;;;10050616;28;20054;-67
2022/07/23 16:11:57;;;;;;;3.75;1.90;;;;;;;;;;10036489;28;20047;-68
2022/07/23 16:16:53;;;;;;;2.85;1.70;;;;;;;;;;10068020;28;20082;-68
2022/07/23 16:21:49;;;;;;;2.55;1.80;;;;;;;;;;10067728;28;20644;-68
2022/07/23 16:26:46;;;;;;;4.25;1.88;;;;;;;;;;10065797;28;20134;-67
2022/07/23 16:31:42;;;;;;;3.20;1.70;;;;;;;;;;10067906;28;20039;-67
2022/07/23 16:36:39;;;;;;;3.08;1.88;;;;;;;;;;10064506;28;20048;-68
2022/07/23 16:41:36;;;;;;;3.15;1.77;;;;;;;;;;10051513;28;20134;-68
2022/07/23 16:46:32;;;;;;;3.40;1.88;;;;;;;;;;10063200;28;20074;-68
2022/07/23 16:51:28;;;;;;;5.03;2.70;;;;;;;;;;10047856;28;20087;-68
2022/07/23 16:56:25;;;;;;;3.47;2.08;;;;;;;;;;10061739;28;20565;-67
2022/07/23 17:01:21;;;;;;;3.42;1.90;;;;;;;;;;10035634;28;20594;-67
2022/07/23 17:06:17;;;;;;;2.30;1.80;;;;;;;;;;10044160;28;20082;-67
2022/07/23 17:11:14;;;;;;;3.40;2.17;;;;;;;;;;10071613;28;20059;-67
2022/07/23 17:16:10;;;;;;;4.68;2.20;;;;;;;;;;10065815;28;20067;-67
2022/07/23 17:21:06;;;;;;;3.20;2.15;;;;;;;;;;10071363;28;20051;-67
2022/07/23 17:26:03;;;;;;;4.05;2.00;;;;;;;;;;10066676;28;20130;-67
2022/07/23 17:30:59;;;;;;;5.45;2.70;;;;;;;;;;10088400;28;20051;-67
2022/07/23 17:35:55;;;;;;;3.10;2.10;;;;;;;;;;10108687;28;20070;-67
2022/07/23 17:40:52;;;;;;;4.38;2.28;;;;;;;;;;10095925;28;20081;-67
2022/07/23 17:45:48;;;;;;;4.82;2.92;;;;;;;;;;10098626;28;20035;-67
2022/07/23 17:50:44;;;;;;;5.03;2.30;;;;;;;;;;10052481;28;20051;-67
2022/07/23 17:55:41;;;;;;;4.20;2.35;;;;;;;;;;10062448;28;20074;-67
2022/07/23 18:00:37;;;;;;;3.58;2.15;;;;;;;;;;10041695;28;20075;-67
2022/07/23 18:05:34;;;;;;;4.75;2.13;;;;;;;;;;10052443;28;20047;-67
2022/07/23 18:10:31;;;;;;;3.17;1.90;;;;;;;;;;10102886;28;20093;-67
2022/07/23 18:15:27;;;;;;;6.32;2.60;;;;;;;;;;10071803;28;20394;-67
2022/07/23 18:20:23;;;;;;;3.45;1.92;;;;;;;;;;10080607;28;20111;-67
2022/07/23 18:25:20;;;;;;;5.22;1.73;;;;;;;;;;10064478;28;20102;-67
2022/07/23 18:30:20;;;;;;;5.57;2.10;;;;;;;;;;10088578;28;20462;-67
2022/07/23 18:35:22;;;;;;;;;;;;;;;;;;10088019;28;20057;-67
2022/07/23 18:40:19;;;;;;;5.10;1.85;;;;;;;;;;10061855;28;19958;-67
2022/07/23 18:45:15;;;;;;;3.85;2.08;;;;;;;;;;10073045;28;20079;-67
2022/07/23 18:50:12;;;;;;;4.80;2.30;;;;;;;;;;10097128;28;20101;-67
2022/07/23 18:55:08;;;;;;;3.35;1.90;;;;;;;;;;10101560;28;20398;-67
2022/07/23 19:00:06;;;;;;;4.00;2.13;;;;;;;;;;10052727;28;20482;-67
2022/07/23 19:05:03;;;;;;;3.85;2.35;;;;;;;;;;10092125;28;20043;-67
2022/07/23 19:10:00;;;;;;;4.63;2.13;;;;;;;;;;10072498;28;20050;-68
2022/07/23 19:14:56;;;;;;;3.45;1.70;;;;;;;;;;10094283;28;20059;-68
2022/07/23 19:19:52;;;;;;;3.95;2.28;;;;;;;;;;10076770;28;20490;-67
2022/07/23 19:24:49;;;;;;;5.88;2.60;;;;;;;;;;10070693;28;20040;-68
2022/07/23 19:29:46;;;;;;;3.28;1.73;;;;;;;;;;10037973;28;20154;-68
2022/07/23 19:34:42;;;;;;;5.38;1.90;;;;;;;;;;10051955;28;20057;-68
2022/07/23 19:39:39;;;;;;;5.50;2.10;;;;;;;;;;10076728;28;20047;-68
2022/07/23 19:44:36;;;;;;;3.58;1.80;;;;;;;;;;10069750;28;20110;-68
2022/07/23 19:49:32;;;;;;;4.03;2.10;;;;;;;;;;10076189;28;20690;-68
2022/07/23 19:54:28;;;;;;;6.35;2.70;;;;;;;;;;10068336;28;20051;-67
2022/07/23 19:59:24;;;;;;;5.55;2.25;;;;;;;;;;10074456;28;20078;-67
2022/07/23 20:04:21;;;;;;;4.55;2.00;;;;;;;;;;10053572;28;20070;-67
2022/07/23 20:09:17;;;;;;;6.03;1.85;;;;;;;;;;10070309;28;20110;-67
2022/07/23 20:14:14;;;;;;;4.75;1.90;;;;;;;;;;10082208;28;20047;-69
2022/07/23 20:19:10;;;;;;;6.53;3.10;;;;;;;;;;10070737;28;20322;-67
2022/07/23 20:24:06;;;;;;;3.33;2.08;;;;;;;;;;10045391;28;20044;-67
2022/07/23 20:29:06;;;;;;;3.47;1.77;;;;;;;;;;10059042;28;20438;-67
2022/07/23 20:34:03;;;;;;;5.18;2.55;;;;;;;;;;10044489;28;20524;-67
2022/07/23 20:39:00;;;;;;;4.90;2.45;;;;;;;;;;10043315;28;20086;-67
2022/07/23 20:44:00;;;;;;;5.03;2.53;;;;;;;;;;10041734;28;20414;-67
2022/07/23 20:48:56;;;;;;;5.00;2.22;;;;;;;;;;10058455;28;20046;-67
2022/07/23 20:53:52;;;;;;;4.95;1.83;;;;;;;;;;10078956;28;20130;-67
2022/07/23 20:58:50;;;;;;;4.88;2.05;;;;;;;;;;10074346;28;20074;-67
2022/07/23 21:03:47;;;;;;;4.38;1.58;;;;;;;;;;10048145;28;20502;-67
2022/07/23 21:08:43;;;;;;;4.60;2.58;;;;;;;;;;10075686;28;20101;-67
2022/07/23 21:13:39;;;;;;;4.82;2.35;;;;;;;;;;10050796;28;20069;-67
2022/07/23 21:18:36;;;;;;;4.15;2.10;;;;;;;;;;10071417;28;20079;-67
2022/07/23 21:23:32;;;;;;;4.80;2.05;;;;;;;;;;10047211;28;20139;-67
2022/07/23 21:28:32;;;;;;;6.32;2.05;;;;;;;;;;10055385;28;20126;-67
2022/07/23 21:33:28;;;;;;;4.45;2.50;;;;;;;;;;10046271;28;20086;-68
2022/07/23 21:38:24;;;;;;;5.93;2.05;;;;;;;;;;10080572;28;20457;-67
2022/07/23 21:43:24;;;;;;;3.85;1.85;;;;;;;;;;10096213;28;20578;-67
2022/07/23 21:48:22;;;;;;;4.13;1.90;;;;;;;;;;10052489;28;20137;-67
2022/07/23 21:53:18;;;;;;;4.82;1.88;;;;;;;;;;10043764;28;20050;-67
2022/07/23 21:58:14;;;;;;;4.85;1.88;;;;;;;;;;10080948;28;20466;-67
2022/07/23 22:03:11;;;;;;;3.75;2.03;;;;;;;;;;10069047;28;20052;-67
2022/07/23 22:08:07;;;;;;;3.63;1.88;;;;;;;;;;10080243;28;20433;-67
2022/07/23 22:13:03;;;;;;;5.22;2.22;;;;;;;;;;10059735;28;20130;-67
2022/07/23 22:18:00;;;;;;;5.68;2.00;;;;;;;;;;10079690;28;20138;-66
2022/07/23 22:22:56;;;;;;;4.82;2.35;;;;;;;;;;10078249;28;20102;-67
2022/07/23 22:27:52;;;;;;;9.63;2.55;;;;;;;;;;10079555;28;20110;-67
2022/07/23 22:32:49;;;;;;;6.10;2.72;;;;;;;;;;10040889;28;20118;-68
2022/07/23 22:37:45;;;;;;;10.77;5.18;;;;;;;;;;10075668;28;20556;-67
2022/07/23 22:42:42;;;;;;;7.93;4.30;;;;;;;;;;10089269;28;20460;-67
2022/07/23 22:47:38;;;;;;;7.32;3.05;;;;;;;;;;10083388;28;20090;-67
2022/07/23 22:52:35;;;;;;;7.28;3.80;;;;;;;;;;10040112;28;20052;-67
2022/07/23 22:57:31;;;;;;;7.28;3.25;;;;;;;;;;10075005;28;20078;-67
2022/07/23 23:02:28;;;;;;;9.07;3.33;;;;;;;;;;10087711;28;20047;-67
2022/07/23 23:07:24;;;;;;;5.82;2.97;;;;;;;;;;10073737;28;20047;-67
2022/07/23 23:12:20;;;;;;;5.82;2.95;;;;;;;;;;10075106;28;21031;-67
2022/07/23 23:17:17;;;;;;;6.15;2.90;;;;;;;;;;10072459;28;20078;-67
2022/07/23 23:22:13;;;;;;;6.03;2.78;;;;;;;;;;10072423;28;20134;-67
2022/07/23 23:27:10;;;;;;;4.35;2.60;;;;;;;;;;10071577;28;20082;-67
2022/07/23 23:32:06;;;;;;;5.20;2.42;;;;;;;;;;10072719;28;20067;-67
2022/07/23 23:37:03;;;;;;;7.97;2.80;;;;;;;;;;10070213;28;20518;-67
2022/07/23 23:42:00;;;;;;;4.78;2.53;;;;;;;;;;10065198;28;20110;-67
2022/07/23 23:46:56;;;;;;;7.68;2.60;;;;;;;;;;10068633;28;20560;-67
2022/07/23 23:51:52;;;;;;;6.55;2.78;;;;;;;;;;10053957;28;20094;-67
2022/07/23 23:56:48;;;;;;;4.40;2.20;;;;;;;;;;10067419;28;20506;-67
